createdAt,value
2019-03-18T00:00:27.895Z,90.40
2019-03-18T00:02:57.173Z,90.30
2019-03-18T00:05:26.213Z,90.40
2019-03-18T00:07:56.831Z,90.50
2019-03-18T00:10:26.095Z,90.50
2019-03-18T00:12:55.031Z,90.60
2019-03-18T00:15:24.182Z,90.80
2019-03-18T00:17:53.480Z,90.90
2019-03-18T00:20:22.263Z,91.00
2019-03-18T00:22:51.424Z,91.10
2019-03-18T00:25:20.468Z,91.00
2019-03-18T00:27:49.518Z,90.90
2019-03-18T00:30:19.627Z,90.90
2019-03-18T00:32:48.670Z,90.90
2019-03-18T00:35:17.843Z,90.90
2019-03-18T00:37:46.752Z,91.00
2019-03-18T00:40:17.235Z,91.00
2019-03-18T00:42:46.156Z,91.00
2019-03-18T00:45:15.967Z,90.90
2019-03-18T00:47:45.331Z,91.00
2019-03-18T00:50:17.721Z,91.00
2019-03-18T00:52:46.882Z,90.90
2019-03-18T00:55:16.166Z,91.00
2019-03-18T00:57:45.210Z,91.10
2019-03-18T01:00:18.691Z,90.90
2019-03-18T01:02:49.675Z,90.60
2019-03-18T01:05:18.695Z,90.60
2019-03-18T01:07:47.614Z,90.80
2019-03-18T01:10:17.742Z,90.60
2019-03-18T01:12:46.900Z,90.50
2019-03-18T01:15:27.265Z,90.60
2019-03-18T01:17:46.659Z,90.50
2019-03-18T01:20:15.821Z,90.50
2019-03-18T01:22:44.861Z,90.80
2019-03-18T01:25:13.921Z,90.50
2019-03-18T01:27:42.943Z,90.60
2019-03-18T01:30:14.194Z,90.60
2019-03-18T01:32:43.079Z,90.70
2019-03-18T01:35:12.470Z,90.80
2019-03-18T01:37:41.528Z,90.70
2019-03-18T01:40:14.516Z,90.70
2019-03-18T01:42:43.794Z,90.80
2019-03-18T01:45:12.953Z,90.90
2019-03-18T01:47:42.125Z,91.00
2019-03-18T01:50:14.292Z,90.90
2019-03-18T01:52:43.206Z,90.80
2019-03-18T01:55:12.485Z,90.90
2019-03-18T01:57:41.533Z,91.00
2019-03-18T02:00:15.244Z,90.90
2019-03-18T02:02:44.171Z,90.80
2019-03-18T02:05:13.335Z,90.70
2019-03-18T02:07:42.488Z,91.20
2019-03-18T02:10:14.893Z,90.80
2019-03-18T02:12:44.177Z,90.80
2019-03-18T02:15:15.139Z,90.70
2019-03-18T02:17:44.175Z,90.90
2019-03-18T02:20:14.423Z,90.70
2019-03-18T02:22:43.221Z,90.60
2019-03-18T02:25:12.501Z,90.90
2019-03-18T02:27:41.426Z,90.80
2019-03-18T02:30:18.291Z,90.90
2019-03-18T02:32:49.146Z,90.70
2019-03-18T02:35:18.680Z,90.70
2019-03-18T02:37:47.671Z,90.60
2019-03-18T02:40:16.856Z,90.80
2019-03-18T02:42:45.642Z,90.90
2019-03-18T02:45:14.554Z,91.10
2019-03-18T02:47:43.718Z,91.30
2019-03-18T02:50:14.480Z,91.50
2019-03-18T02:52:43.478Z,91.70
2019-03-18T02:55:12.884Z,91.70
2019-03-18T02:57:42.058Z,91.80
2019-03-18T03:00:16.973Z,91.70
2019-03-18T03:02:46.007Z,91.70
2019-03-18T03:05:15.380Z,91.80
2019-03-18T03:07:44.453Z,91.90
2019-03-18T03:10:14.328Z,92.00
2019-03-18T03:12:43.501Z,92.10
2019-03-18T03:15:13.988Z,92.10
2019-03-18T03:17:43.273Z,92.00
2019-03-18T03:20:12.837Z,92.10
2019-03-18T03:22:41.815Z,92.10
2019-03-18T03:25:11.337Z,92.00
2019-03-18T03:27:40.513Z,92.00
2019-03-18T03:30:11.946Z,92.00
2019-03-18T03:32:41.014Z,92.00
2019-03-18T03:35:10.035Z,92.20
2019-03-18T03:37:38.962Z,92.30
2019-03-18T03:40:09.679Z,92.20
2019-03-18T03:42:38.830Z,92.20
2019-03-18T03:45:10.031Z,92.20
2019-03-18T03:47:39.083Z,92.50
2019-03-18T03:50:12.911Z,92.70
2019-03-18T03:52:41.601Z,93.00
2019-03-18T03:55:12.437Z,92.70
2019-03-18T03:57:41.480Z,92.80
2019-03-18T04:00:17.255Z,92.80
2019-03-18T04:02:46.286Z,92.90
2019-03-18T04:05:15.453Z,92.90
2019-03-18T04:07:44.486Z,92.70
2019-03-18T04:10:14.725Z,92.80
2019-03-18T04:12:43.772Z,92.90
2019-03-18T04:15:13.787Z,93.10
2019-03-18T04:17:42.936Z,93.00
2019-03-18T04:20:16.205Z,93.00
2019-03-18T04:22:45.099Z,93.20
2019-03-18T04:25:14.381Z,93.20
2019-03-18T04:27:43.419Z,93.20
2019-03-18T04:30:15.702Z,93.40
2019-03-18T04:32:44.983Z,93.40
2019-03-18T04:35:14.264Z,93.40
2019-03-18T04:37:43.303Z,93.50
2019-03-18T04:40:12.224Z,93.60
2019-03-18T04:42:41.270Z,93.20
2019-03-18T04:45:11.029Z,93.20
2019-03-18T04:47:40.243Z,93.00
2019-03-18T04:50:11.152Z,92.90
2019-03-18T04:52:40.191Z,92.80
2019-03-18T04:55:09.476Z,92.70
2019-03-18T04:57:38.515Z,92.60
2019-03-18T05:00:14.756Z,92.50
2019-03-18T05:02:43.800Z,92.50
2019-03-18T05:05:12.848Z,92.10
2019-03-18T05:07:41.897Z,92.20
2019-03-18T05:10:11.529Z,92.30
2019-03-18T05:12:40.707Z,92.50
2019-03-18T05:15:10.452Z,92.40
2019-03-18T05:17:39.731Z,92.40
2019-03-18T05:20:10.096Z,92.30
2019-03-18T05:22:39.137Z,92.20
2019-03-18T05:25:09.740Z,92.10
2019-03-18T05:27:38.780Z,92.20
2019-03-18T05:30:10.586Z,92.10
2019-03-18T05:32:39.502Z,92.00
2019-03-18T05:35:08.781Z,92.00
2019-03-18T05:37:37.830Z,92.00
2019-03-18T05:40:08.302Z,92.20
2019-03-18T05:42:37.350Z,92.20
2019-03-18T05:45:10.963Z,91.90
2019-03-18T05:47:40.348Z,91.70
2019-03-18T05:50:10.594Z,91.30
2019-03-18T05:52:39.633Z,91.30
2019-03-18T05:55:09.280Z,91.20
2019-03-18T05:57:38.440Z,91.20
2019-03-18T06:00:10.601Z,91.40
2019-03-18T06:02:39.516Z,91.20
2019-03-18T06:05:08.801Z,91.20
2019-03-18T06:07:37.844Z,90.80
2019-03-18T06:10:14.215Z,90.90
2019-03-18T06:12:43.242Z,91.00
2019-03-18T06:15:13.129Z,91.00
2019-03-18T06:17:51.672Z,90.50
2019-03-18T06:20:14.092Z,90.70
2019-03-18T06:22:43.378Z,90.90
2019-03-18T06:25:12.537Z,91.50
2019-03-18T06:27:41.456Z,91.60
2019-03-18T06:30:12.537Z,91.00
2019-03-18T06:32:41.470Z,90.80
2019-03-18T06:35:11.217Z,90.90
2019-03-18T06:37:40.390Z,90.90
2019-03-18T06:40:16.028Z,91.20
2019-03-18T06:42:44.952Z,90.70
2019-03-18T06:45:14.258Z,90.90
2019-03-18T06:47:43.028Z,90.90
2019-03-18T06:50:13.266Z,91.30
2019-03-18T06:52:42.192Z,91.10
2019-03-18T06:55:11.236Z,91.20
2019-03-18T06:57:40.035Z,91.40
2019-03-18T07:00:16.515Z,91.10
2019-03-18T07:02:45.317Z,91.20
2019-03-18T07:05:14.601Z,91.10
2019-03-18T07:07:43.637Z,91.00
2019-03-18T07:10:13.649Z,90.80
2019-03-18T07:12:42.564Z,90.70
2019-03-18T07:15:11.726Z,91.10
2019-03-18T07:17:40.529Z,91.40
2019-03-18T07:20:11.244Z,91.30
2019-03-18T07:22:40.049Z,91.70
2019-03-18T07:25:09.454Z,92.10
2019-03-18T07:27:38.131Z,92.20
2019-03-18T07:30:09.699Z,91.90
2019-03-18T07:32:38.613Z,92.10
2019-03-18T07:35:07.785Z,92.00
2019-03-18T07:37:36.938Z,92.20
2019-03-18T07:40:11.500Z,92.50
2019-03-18T07:42:40.545Z,92.50
2019-03-18T07:45:11.384Z,92.80
2019-03-18T07:47:40.424Z,92.60
2019-03-18T07:50:13.548Z,92.50
2019-03-18T07:52:42.826Z,92.20
2019-03-18T07:55:11.990Z,92.40
2019-03-18T07:57:41.271Z,92.10
2019-03-18T08:00:14.523Z,92.30
2019-03-18T08:02:43.673Z,92.20
2019-03-18T08:05:12.715Z,92.10
2019-03-18T08:07:41.757Z,92.20
2019-03-18T08:10:14.520Z,92.10
2019-03-18T08:12:43.439Z,92.30
2019-03-18T08:15:13.385Z,92.20
2019-03-18T08:17:42.604Z,93.00
2019-03-18T08:20:14.889Z,92.60
2019-03-18T08:22:43.937Z,92.20
2019-03-18T08:25:13.209Z,91.80
2019-03-18T08:27:42.128Z,91.60
2019-03-18T08:30:13.092Z,91.80
2019-03-18T08:32:41.892Z,91.70
2019-03-18T08:35:11.294Z,92.10
2019-03-18T08:37:40.337Z,92.00
2019-03-18T08:40:12.884Z,91.70
2019-03-18T08:42:41.896Z,91.60
2019-03-18T08:45:12.500Z,91.00
2019-03-18T08:47:41.305Z,90.40
2019-03-18T08:50:12.485Z,90.70
2019-03-18T08:52:41.785Z,89.80
2019-03-18T08:55:11.675Z,89.20
2019-03-18T08:57:40.588Z,89.30
2019-03-18T09:00:21.390Z,90.00
2019-03-18T09:02:50.793Z,89.20
2019-03-18T09:05:19.715Z,88.80
2019-03-18T09:07:48.635Z,88.80
2019-03-18T09:10:18.174Z,90.20
2019-03-18T09:12:47.073Z,90.10
2019-03-18T09:15:16.116Z,90.50
2019-03-18T09:17:45.429Z,90.20
2019-03-18T09:20:15.287Z,90.40
2019-03-18T09:22:44.206Z,88.50
2019-03-18T09:25:13.249Z,88.60
2019-03-18T09:27:42.046Z,89.80
2019-03-18T09:30:16.969Z,89.90
2019-03-18T09:32:45.652Z,87.60
2019-03-18T09:35:14.572Z,87.40
2019-03-18T09:37:43.496Z,87.20
2019-03-18T09:40:16.257Z,84.60
2019-03-18T09:42:45.549Z,82.70
2019-03-18T09:45:15.783Z,82.20
2019-03-18T09:47:44.819Z,83.40
2019-03-18T09:50:13.982Z,79.90
2019-03-18T09:52:42.903Z,79.60
2019-03-18T09:55:12.422Z,82.50
2019-03-18T09:57:41.248Z,83.30
2019-03-18T10:00:17.108Z,82.20
2019-03-18T10:02:45.913Z,82.40
2019-03-18T10:05:14.835Z,80.80
2019-03-18T10:07:43.991Z,80.60
2019-03-18T10:10:14.232Z,79.60
2019-03-18T10:12:42.915Z,79.40
2019-03-18T10:15:16.277Z,78.30
2019-03-18T10:17:45.320Z,78.40
2019-03-18T10:20:14.250Z,75.90
2019-03-18T10:22:43.523Z,75.40
2019-03-18T10:25:12.847Z,75.60
2019-03-18T10:27:41.722Z,77.90
2019-03-18T10:30:15.207Z,76.60
2019-03-18T10:32:44.135Z,72.60
2019-03-18T10:35:13.647Z,72.30
2019-03-18T10:37:42.449Z,75.00
2019-03-18T10:40:15.731Z,75.80
2019-03-18T10:42:44.737Z,76.20
2019-03-18T10:45:14.254Z,76.50
2019-03-18T10:47:43.175Z,76.20
2019-03-18T10:50:17.141Z,77.50
2019-03-18T10:52:46.193Z,78.30
2019-03-18T10:55:15.343Z,77.10
2019-03-18T10:57:44.623Z,77.20
2019-03-18T11:00:14.865Z,77.60
2019-03-18T11:02:45.298Z,73.80
2019-03-18T11:05:15.139Z,73.20
2019-03-18T11:07:44.170Z,69.20
2019-03-18T11:10:19.313Z,69.90
2019-03-18T11:12:48.353Z,68.90
2019-03-18T11:15:19.196Z,67.00
2019-03-18T11:17:49.555Z,61.30
2019-03-18T11:20:18.846Z,59.50
2019-03-18T11:22:48.844Z,55.50
2019-03-18T11:25:18.279Z,56.10
2019-03-18T11:27:47.168Z,58.40
2019-03-18T11:30:19.938Z,60.10
2019-03-18T11:32:49.092Z,61.20
2019-03-18T11:35:17.890Z,64.90
2019-03-18T11:37:46.811Z,60.80
2019-03-18T11:40:23.051Z,66.90
2019-03-18T11:42:52.090Z,71.80
2019-03-18T11:45:21.025Z,73.70
2019-03-18T11:47:50.056Z,76.80
2019-03-18T11:50:19.701Z,75.00
2019-03-18T11:52:48.747Z,75.30
2019-03-18T11:55:22.601Z,77.40
2019-03-18T11:57:51.619Z,74.30
2019-03-18T12:00:22.822Z,69.60
2019-03-18T12:02:51.987Z,63.50
2019-03-18T12:05:26.065Z,62.80
2019-03-18T12:07:55.350Z,59.90
2019-03-18T12:10:25.995Z,58.20
2019-03-18T12:12:55.838Z,56.10
2019-03-18T12:15:28.116Z,55.80
2019-03-18T12:17:57.032Z,54.20
2019-03-18T12:20:26.097Z,52.10
2019-03-18T12:22:55.006Z,53.80
2019-03-18T12:25:23.918Z,54.10
2019-03-18T12:27:52.851Z,53.20
2019-03-18T12:30:25.382Z,53.20
2019-03-18T12:32:54.290Z,53.60
2019-03-18T12:35:23.209Z,52.10
2019-03-18T12:37:52.252Z,51.40
2019-03-18T12:40:21.175Z,50.00
2019-03-18T12:42:49.981Z,52.00
2019-03-18T12:45:19.852Z,53.60
2019-03-18T12:47:48.774Z,51.00
2019-03-18T12:50:39.100Z,50.20
2019-03-18T12:52:55.139Z,50.50
2019-03-18T12:55:24.178Z,48.50
2019-03-18T12:57:53.102Z,45.80
2019-03-18T13:00:30.060Z,42.70
2019-03-18T13:02:58.863Z,43.20
2019-03-18T13:05:27.787Z,44.50
2019-03-18T13:07:56.587Z,45.20
2019-03-18T13:10:25.626Z,43.30
2019-03-18T13:12:54.550Z,46.90
2019-03-18T13:15:24.308Z,49.30
2019-03-18T13:17:53.144Z,51.40
2019-03-18T13:20:22.394Z,52.50
2019-03-18T13:22:53.876Z,53.70
2019-03-18T13:25:22.209Z,54.10
2019-03-18T13:27:51.076Z,56.00
2019-03-18T13:30:20.724Z,56.30
2019-03-18T13:32:49.643Z,54.20
2019-03-18T13:35:18.441Z,51.40
2019-03-18T13:37:47.124Z,50.90
2019-03-18T13:40:16.886Z,53.00
2019-03-18T13:42:45.808Z,50.90
2019-03-18T13:45:18.926Z,51.20
2019-03-18T13:47:47.853Z,53.90
2019-03-18T13:50:18.574Z,55.90
2019-03-18T13:52:47.505Z,57.50
2019-03-18T13:55:16.421Z,57.40
2019-03-18T13:57:45.095Z,58.40
2019-03-18T14:00:18.097Z,58.10
2019-03-18T14:02:46.899Z,60.00
2019-03-18T14:05:15.830Z,57.80
2019-03-18T14:07:44.622Z,59.00
2019-03-18T14:10:14.625Z,55.60
2019-03-18T14:12:43.305Z,53.70
2019-03-18T14:15:17.522Z,51.50
2019-03-18T14:17:47.152Z,51.60
2019-03-18T14:20:20.516Z,48.30
2019-03-18T14:22:49.310Z,43.30
2019-03-18T14:25:18.237Z,40.90
2019-03-18T14:27:47.166Z,40.90
2019-03-18T14:30:20.047Z,38.70
2019-03-18T14:32:48.845Z,37.70
2019-03-18T14:35:21.581Z,38.00
2019-03-18T14:37:48.368Z,39.20
2019-03-18T14:40:21.248Z,38.80
2019-03-18T14:42:50.162Z,39.70
2019-03-18T14:45:22.691Z,42.80
2019-03-18T14:47:51.610Z,42.30
2019-03-18T14:50:20.649Z,45.30
2019-03-18T14:52:49.455Z,44.60
2019-03-18T14:55:18.859Z,44.30
2019-03-18T14:57:47.656Z,47.80
2019-03-18T15:00:24.022Z,49.40
2019-03-18T15:02:52.975Z,51.30
2019-03-18T15:05:21.860Z,53.90
2019-03-18T15:07:50.785Z,56.40
2019-03-18T15:10:24.868Z,57.00
2019-03-18T15:12:53.785Z,58.50
2019-03-18T15:15:22.585Z,59.90
2019-03-18T15:17:51.510Z,58.40
2019-03-18T15:20:24.629Z,55.90
2019-03-18T15:22:53.429Z,52.50
2019-03-18T15:25:26.550Z,52.90
2019-03-18T15:27:55.238Z,51.40
2019-03-18T15:30:24.114Z,51.40
2019-03-18T15:32:53.077Z,51.20
2019-03-18T15:35:21.884Z,52.70
2019-03-18T15:37:50.805Z,54.50
2019-03-18T15:40:27.289Z,55.90
2019-03-18T15:42:56.205Z,56.70
2019-03-18T15:45:25.007Z,55.60
2019-03-18T15:47:53.926Z,53.90
2019-03-18T15:50:24.170Z,55.80
2019-03-18T15:52:53.091Z,55.40
2019-03-18T15:55:24.027Z,56.30
2019-03-18T15:57:52.512Z,56.50
2019-03-18T16:00:23.461Z,52.70
2019-03-18T16:02:52.374Z,51.80
2019-03-18T16:05:21.178Z,50.70
2019-03-18T16:07:52.503Z,50.00
2019-03-18T16:10:21.541Z,46.70
2019-03-18T16:12:50.343Z,45.00
2019-03-18T16:15:19.298Z,45.70
2019-03-18T16:17:48.080Z,44.30
2019-03-18T16:20:18.548Z,44.10
2019-03-18T16:22:47.226Z,44.20
2019-03-18T16:25:16.154Z,44.30
2019-03-18T16:27:45.194Z,46.70
2019-03-18T16:30:16.036Z,47.60
2019-03-18T16:32:44.957Z,48.70
2019-03-18T16:35:16.222Z,50.70
2019-03-18T16:37:45.798Z,51.50
2019-03-18T16:40:22.070Z,53.00
2019-03-18T16:42:50.961Z,54.70
2019-03-18T16:45:20.373Z,56.50
2019-03-18T16:47:49.164Z,57.50
2019-03-18T16:50:23.497Z,57.80
2019-03-18T16:52:52.294Z,57.20
2019-03-18T16:55:20.977Z,57.50
2019-03-18T16:57:49.892Z,58.40
2019-03-18T17:00:22.299Z,58.80
2019-03-18T17:02:51.094Z,59.20
2019-03-18T17:05:20.141Z,59.90
2019-03-18T17:07:49.054Z,60.00
2019-03-18T17:10:17.982Z,60.80
2019-03-18T17:12:46.781Z,61.80
2019-03-18T17:15:19.665Z,61.70
2019-03-18T17:17:48.463Z,61.40
2019-03-18T17:20:17.502Z,61.60
2019-03-18T17:22:49.931Z,61.00
2019-03-18T17:25:24.586Z,61.60
2019-03-18T17:27:53.867Z,61.50
2019-03-18T17:30:22.796Z,61.20
2019-03-18T17:32:51.718Z,62.40
2019-03-18T17:35:20.634Z,61.80
2019-03-18T17:37:49.437Z,62.10
2019-03-18T17:40:19.084Z,63.60
2019-03-18T17:42:47.880Z,62.20
2019-03-18T17:45:17.642Z,63.50
2019-03-18T17:47:46.442Z,65.40
2019-03-18T17:50:24.247Z,68.60
2019-03-18T17:53:02.490Z,70.40
2019-03-18T17:55:23.527Z,73.70
2019-03-18T17:57:52.447Z,76.70
2019-03-18T18:00:35.059Z,79.90
2019-03-18T18:03:03.977Z,81.50
2019-03-18T18:05:32.774Z,82.70
2019-03-18T18:08:01.694Z,82.60
2019-03-18T18:10:30.621Z,81.40
2019-03-18T18:12:59.537Z,81.70
2019-03-18T18:15:28.458Z,82.70
2019-03-18T18:17:57.261Z,83.30
2019-03-18T18:20:26.064Z,84.00
2019-03-18T18:22:54.983Z,83.90
2019-03-18T18:25:23.905Z,83.20
2019-03-18T18:27:53.074Z,82.60
2019-03-18T18:30:21.988Z,82.30
2019-03-18T18:32:50.788Z,81.10
2019-03-18T18:35:19.602Z,81.00
2019-03-18T18:37:48.394Z,81.20
2019-03-18T18:40:19.354Z,83.10
2019-03-18T18:42:48.275Z,84.40
2019-03-18T18:45:17.198Z,85.90
2019-03-18T18:47:46.121Z,85.90
2019-03-18T18:50:15.044Z,86.10
2019-03-18T18:52:43.723Z,86.80
2019-03-18T18:55:13.657Z,86.70
2019-03-18T18:57:42.770Z,88.10
2019-03-18T19:00:20.209Z,87.40
2019-03-18T19:02:49.373Z,87.00
2019-03-18T19:05:18.767Z,86.60
2019-03-18T19:07:47.979Z,86.70
2019-03-18T19:10:20.697Z,86.50
2019-03-18T19:12:50.134Z,85.20
2019-03-18T19:15:40.015Z,85.50
2019-03-18T19:18:09.178Z,85.10
2019-03-18T19:20:38.220Z,85.80
2019-03-18T19:23:07.988Z,86.80
2019-03-18T19:25:37.316Z,85.40
2019-03-18T19:28:06.902Z,85.20
2019-03-18T19:30:35.828Z,85.20
2019-03-18T19:33:04.987Z,86.10
2019-03-18T19:35:33.907Z,85.50
2019-03-18T19:38:03.071Z,87.00
2019-03-18T19:40:32.112Z,88.00
2019-03-18T19:43:01.036Z,88.40
2019-03-18T19:45:29.967Z,88.40
2019-03-18T19:47:58.755Z,88.50
2019-03-18T19:50:33.797Z,89.40
2019-03-18T19:53:02.718Z,89.40
2019-03-18T19:55:31.411Z,88.60
2019-03-18T19:58:00.447Z,88.50
2019-03-18T20:00:32.005Z,88.60
2019-03-18T20:03:01.047Z,88.00
2019-03-18T20:05:30.327Z,88.50
2019-03-18T20:07:59.613Z,88.60
2019-03-18T20:10:28.413Z,88.50
2019-03-18T20:12:57.694Z,89.30
2019-03-18T20:15:26.926Z,88.60
2019-03-18T20:17:55.775Z,88.80
2019-03-18T20:20:24.817Z,89.90
2019-03-18T20:22:53.748Z,89.60
2019-03-18T20:25:22.541Z,89.00
2019-03-18T20:27:52.306Z,89.20
2019-03-18T20:30:22.187Z,89.50
2019-03-18T20:32:51.357Z,89.90
2019-03-18T20:35:21.409Z,90.10
2019-03-18T20:37:51.909Z,90.30
2019-03-18T20:40:21.108Z,90.30
2019-03-18T20:42:50.271Z,90.40
2019-03-18T20:45:20.522Z,90.40
2019-03-18T20:47:49.314Z,90.40
2019-03-18T20:50:20.520Z,90.50
2019-03-18T20:52:49.201Z,90.80
2019-03-18T20:55:18.373Z,90.70
2019-03-18T20:57:47.399Z,90.70
2019-03-18T21:00:26.039Z,90.70
2019-03-18T21:02:55.092Z,90.70
2019-03-18T21:05:25.381Z,90.50
2019-03-18T21:07:54.725Z,90.50
2019-03-18T21:10:24.007Z,90.70
2019-03-18T21:12:53.409Z,90.60
2019-03-18T21:15:22.338Z,90.60
2019-03-18T21:17:51.375Z,90.40
2019-03-18T21:20:22.216Z,90.20
2019-03-18T21:22:51.018Z,90.30
2019-03-18T21:25:19.817Z,90.30
2019-03-18T21:27:48.862Z,90.40
2019-03-18T21:30:24.622Z,90.30
2019-03-18T21:32:53.592Z,90.00
2019-03-18T21:35:22.463Z,90.00
2019-03-18T21:37:51.387Z,90.20
2019-03-18T21:40:20.906Z,90.20
2019-03-18T21:42:50.068Z,90.40
2019-03-18T21:45:23.517Z,90.70
2019-03-18T21:47:52.475Z,90.80
2019-03-18T21:50:21.753Z,90.70
2019-03-18T21:52:50.800Z,90.80
2019-03-18T21:55:20.206Z,91.00
2019-03-18T21:57:49.235Z,91.00
2019-03-18T22:00:21.519Z,90.90
2019-03-18T22:02:50.440Z,91.10
2019-03-18T22:05:19.608Z,91.10
2019-03-18T22:07:48.645Z,90.80
2019-03-18T22:10:19.869Z,90.70
2019-03-18T22:12:49.009Z,90.80
2019-03-18T22:15:18.205Z,90.70
2019-03-18T22:17:47.327Z,90.50
2019-03-18T22:20:21.773Z,90.60
2019-03-18T22:22:50.696Z,90.70
2019-03-18T22:25:19.736Z,90.60
2019-03-18T22:27:48.538Z,90.50
2019-03-18T22:30:20.098Z,90.50
2019-03-18T22:32:49.023Z,90.60
2019-03-18T22:35:18.342Z,90.70
2019-03-18T22:37:47.465Z,90.70
2019-03-18T22:40:17.225Z,90.70
2019-03-18T22:42:46.149Z,90.90
2019-03-18T22:45:16.393Z,90.20
2019-03-18T22:47:45.319Z,90.30
2019-03-18T22:50:15.075Z,90.50
2019-03-18T22:52:43.991Z,90.30
2019-03-18T22:55:14.126Z,90.40
2019-03-18T22:57:43.166Z,90.30
2019-03-18T23:00:22.282Z,90.60
2019-03-18T23:02:51.561Z,90.80
2019-03-18T23:05:20.839Z,90.90
2019-03-18T23:07:50.001Z,91.40
2019-03-18T23:10:19.292Z,91.30
2019-03-18T23:12:48.448Z,91.40
2019-03-18T23:15:17.364Z,91.50
2019-03-18T23:17:46.532Z,91.60
2019-03-18T23:20:15.935Z,91.70
2019-03-18T23:22:44.978Z,91.90
2019-03-18T23:25:14.135Z,91.70
2019-03-18T23:27:43.297Z,91.80
2019-03-18T23:30:14.141Z,91.70
2019-03-18T23:32:43.544Z,91.60
2019-03-18T23:35:12.702Z,91.40
2019-03-18T23:37:41.862Z,91.40
2019-03-18T23:40:12.579Z,91.30
2019-03-18T23:42:41.624Z,91.40
2019-03-18T23:45:11.866Z,91.30
2019-03-18T23:47:40.785Z,91.40
2019-03-18T23:50:11.990Z,91.50
2019-03-18T23:52:41.033Z,91.50
2019-03-18T23:55:18.902Z,91.50
2019-03-18T23:57:40.791Z,91.40
